createdAt,value
2022-12-11T00:00:16.692Z,95.5
2022-12-11T00:01:17.187Z,95.4
2022-12-11T00:02:16.985Z,95.4
2022-12-11T00:03:16.754Z,95.4
2022-12-11T00:04:17.301Z,95.4
2022-12-11T00:05:16.805Z,95.2
2022-12-11T00:06:17.271Z,95.2
2022-12-11T00:07:16.773Z,95.2
2022-12-11T00:08:17.409Z,95.4
2022-12-11T00:09:16.955Z,95.3
2022-12-11T00:10:16.451Z,95.1
2022-12-11T00:11:16.966Z,95.1
2022-12-11T00:12:17.034Z,94.8
2022-12-11T00:13:16.533Z,94.7
2022-12-11T00:14:16.996Z,94.8
2022-12-11T00:15:16.459Z,94.7
2022-12-11T00:16:17.115Z,94.7
2022-12-11T00:17:16.629Z,95.0
2022-12-11T00:18:17.097Z,95.0
2022-12-11T00:19:16.590Z,95.0
2022-12-11T00:20:17.102Z,95.0
2022-12-11T00:21:16.595Z,94.7
2022-12-11T00:22:16.614Z,94.7
2022-12-11T00:23:17.080Z,94.7
2022-12-11T00:24:16.561Z,94.6
2022-12-11T00:25:17.040Z,94.5
2022-12-11T00:26:16.547Z,94.5
2022-12-11T00:27:17.027Z,94.3
2022-12-11T00:28:16.540Z,94.3
2022-12-11T00:29:17.034Z,94.4
2022-12-11T00:30:16.548Z,94.3
2022-12-11T00:31:17.258Z,94.4
2022-12-11T00:32:17.026Z,94.5
2022-12-11T00:33:16.516Z,94.6
2022-12-11T00:34:16.978Z,94.6
2022-12-11T00:35:16.488Z,94.6
2022-12-11T00:36:16.943Z,94.8
2022-12-11T00:37:17.624Z,94.8
2022-12-11T00:38:17.121Z,94.9
2022-12-11T00:39:16.728Z,94.9
2022-12-11T00:40:17.393Z,94.8
2022-12-11T00:41:16.885Z,94.7
2022-12-11T00:42:16.685Z,94.7
2022-12-11T00:43:17.180Z,94.7
2022-12-11T00:44:16.701Z,94.6
2022-12-11T00:45:17.178Z,94.4
2022-12-11T00:46:16.833Z,94.3
2022-12-11T00:47:17.392Z,94.4
2022-12-11T00:48:16.858Z,94.2
2022-12-11T00:49:17.333Z,94.2
2022-12-11T00:50:16.818Z,94.2
2022-12-11T00:51:17.331Z,94.2
2022-12-11T00:52:17.027Z,94.4
2022-12-11T00:53:16.511Z,94.6
2022-12-11T00:54:16.992Z,94.6
2022-12-11T00:55:16.486Z,94.7
2022-12-11T00:56:16.980Z,94.6
2022-12-11T00:57:16.503Z,94.6
2022-12-11T00:58:17.006Z,94.6
2022-12-11T00:59:16.508Z,94.7
2022-12-11T01:00:17.004Z,94.8
2022-12-11T01:01:16.649Z,94.9
2022-12-11T01:02:17.332Z,94.8
2022-12-11T01:03:16.961Z,94.9
2022-12-11T01:04:16.442Z,95.0
2022-12-11T01:05:16.924Z,95.0
2022-12-11T01:06:17.393Z,95.1
2022-12-11T01:07:16.908Z,95.0
2022-12-11T01:08:17.730Z,94.9
2022-12-11T01:09:17.251Z,95.0
2022-12-11T01:10:16.896Z,95.0
2022-12-11T01:11:17.402Z,94.9
2022-12-11T01:12:17.072Z,95.0
2022-12-11T01:13:16.564Z,95.1
2022-12-11T01:14:17.028Z,95.2
2022-12-11T01:15:16.529Z,95.2
2022-12-11T01:16:17.180Z,95.4
2022-12-11T01:17:16.716Z,95.4
2022-12-11T01:18:17.204Z,95.4
2022-12-11T01:19:16.683Z,95.5
2022-12-11T01:20:17.146Z,95.6
2022-12-11T01:21:16.624Z,95.6
2022-12-11T01:22:16.972Z,95.6
2022-12-11T01:23:17.478Z,95.6
2022-12-11T01:24:16.995Z,95.6
2022-12-11T01:25:16.510Z,95.6
2022-12-11T01:26:16.998Z,95.5
2022-12-11T01:27:16.494Z,95.5
2022-12-11T01:28:16.943Z,95.6
2022-12-11T01:29:17.417Z,95.7
2022-12-11T01:30:16.894Z,95.7
2022-12-11T01:31:17.494Z,95.8
2022-12-11T01:32:17.435Z,95.9
2022-12-11T01:33:16.964Z,95.9
2022-12-11T01:34:17.437Z,95.9
2022-12-11T01:35:16.920Z,95.9
2022-12-11T01:36:17.419Z,95.8
2022-12-11T01:37:16.932Z,95.9
2022-12-11T01:38:17.492Z,95.9
2022-12-11T01:39:16.973Z,96.0
2022-12-11T01:40:16.468Z,96.0
2022-12-11T01:41:16.953Z,96.1
2022-12-11T01:42:16.955Z,96.1
2022-12-11T01:43:17.428Z,96.1
2022-12-11T01:44:16.917Z,96.1
2022-12-11T01:45:17.408Z,96.1
2022-12-11T01:46:16.967Z,96.1
2022-12-11T01:47:16.470Z,96.1
2022-12-11T01:48:16.987Z,96.1
2022-12-11T01:49:16.477Z,96.2
2022-12-11T01:50:16.953Z,96.2
2022-12-11T01:51:17.430Z,96.2
2022-12-11T01:52:16.907Z,96.3
2022-12-11T01:53:17.377Z,96.3
2022-12-11T01:54:16.844Z,96.4
2022-12-11T01:55:17.320Z,96.5
2022-12-11T01:56:16.816Z,96.4
2022-12-11T01:57:17.324Z,96.4
2022-12-11T01:58:16.803Z,96.3
2022-12-11T01:59:17.282Z,96.4
2022-12-11T02:00:16.773Z,96.4
2022-12-11T02:01:17.337Z,96.4
2022-12-11T02:02:17.352Z,96.4
2022-12-11T02:03:16.872Z,96.4
2022-12-11T02:04:17.404Z,96.5
2022-12-11T02:05:16.867Z,96.5
2022-12-11T02:06:17.358Z,96.5
2022-12-11T02:07:16.848Z,96.4
2022-12-11T02:08:17.372Z,96.5
2022-12-11T02:09:16.863Z,96.6
2022-12-11T02:10:17.330Z,96.7
2022-12-11T02:11:16.805Z,96.7
2022-12-11T02:12:16.552Z,96.7
2022-12-11T02:13:17.013Z,96.7
2022-12-11T02:14:16.507Z,96.8
2022-12-11T02:15:17.006Z,96.9
2022-12-11T02:16:16.682Z,96.8
2022-12-11T02:17:17.207Z,96.9
2022-12-11T02:18:16.724Z,96.9
2022-12-11T02:19:17.210Z,96.9
2022-12-11T02:20:16.736Z,97.0
2022-12-11T02:21:17.213Z,97.0
2022-12-11T02:22:17.034Z,97.1
2022-12-11T02:23:16.536Z,97.1
2022-12-11T02:24:17.054Z,97.1
2022-12-11T02:25:16.517Z,97.1
2022-12-11T02:26:16.997Z,97.3
2022-12-11T02:27:16.475Z,97.3
2022-12-11T02:28:16.972Z,97.2
2022-12-11T02:29:16.485Z,97.2
2022-12-11T02:30:16.960Z,97.2
2022-12-11T02:31:17.537Z,97.2
2022-12-11T02:32:16.536Z,97.4
2022-12-11T02:33:17.017Z,97.5
2022-12-11T02:34:16.484Z,97.6
2022-12-11T02:35:16.983Z,97.7
2022-12-11T02:36:16.483Z,97.9
2022-12-11T02:37:16.981Z,97.9
2022-12-11T02:38:16.454Z,97.9
2022-12-11T02:39:16.917Z,97.9
2022-12-11T02:40:17.398Z,97.8
2022-12-11T02:41:16.875Z,97.8
2022-12-11T02:42:16.497Z,97.8
2022-12-11T02:43:17.002Z,97.8
2022-12-11T02:44:16.531Z,97.9
2022-12-11T02:45:17.028Z,97.9
2022-12-11T02:46:16.634Z,98.0
2022-12-11T02:47:17.182Z,98.0
2022-12-11T02:48:16.668Z,98.0
2022-12-11T02:49:17.130Z,98.1
2022-12-11T02:50:16.623Z,98.0
2022-12-11T02:51:17.090Z,98.1
2022-12-11T02:52:16.630Z,98.0
2022-12-11T02:53:17.159Z,98.0
2022-12-11T02:54:16.669Z,98.1
2022-12-11T02:55:17.163Z,98.1
2022-12-11T02:56:16.640Z,98.1
2022-12-11T02:57:17.146Z,98.1
2022-12-11T02:58:16.668Z,98.2
2022-12-11T02:59:17.152Z,98.2
2022-12-11T03:00:16.626Z,98.3
2022-12-11T03:01:17.164Z,98.3
2022-12-11T03:02:17.248Z,98.4
2022-12-11T03:03:16.767Z,98.4
2022-12-11T03:04:17.232Z,98.6
2022-12-11T03:05:16.705Z,98.5
2022-12-11T03:06:17.185Z,98.5
2022-12-11T03:07:16.641Z,98.6
2022-12-11T03:08:17.293Z,98.6
2022-12-11T03:09:16.850Z,98.6
2022-12-11T03:10:17.347Z,98.5
2022-12-11T03:11:16.825Z,98.5
2022-12-11T03:12:16.730Z,98.5
2022-12-11T03:13:17.207Z,98.4
2022-12-11T03:14:16.695Z,98.4
2022-12-11T03:15:17.188Z,98.4
2022-12-11T03:16:16.727Z,98.5
2022-12-11T03:17:17.239Z,98.5
2022-12-11T03:18:16.714Z,98.6
2022-12-11T03:19:17.203Z,98.5
2022-12-11T03:20:16.736Z,98.5
2022-12-11T03:21:17.186Z,98.5
2022-12-11T03:22:16.901Z,98.4
2022-12-11T03:23:17.428Z,98.3
2022-12-11T03:24:16.894Z,98.4
2022-12-11T03:25:17.374Z,98.4
2022-12-11T03:26:16.868Z,98.5
2022-12-11T03:27:17.351Z,98.5
2022-12-11T03:28:16.862Z,98.6
2022-12-11T03:29:17.369Z,98.7
2022-12-11T03:30:16.862Z,98.7
2022-12-11T03:31:17.496Z,98.8
2022-12-11T03:32:17.002Z,98.8
2022-12-11T03:33:16.476Z,98.8
2022-12-11T03:34:16.957Z,98.8
2022-12-11T03:35:17.422Z,98.8
2022-12-11T03:36:16.911Z,98.8
2022-12-11T03:37:17.402Z,98.7
2022-12-11T03:38:16.909Z,98.7
2022-12-11T03:39:17.381Z,98.6
2022-12-11T03:40:16.849Z,98.6
2022-12-11T03:41:17.049Z,98.6
2022-12-11T03:42:17.132Z,98.6
2022-12-11T03:43:16.584Z,98.7
2022-12-11T03:44:17.035Z,98.7
2022-12-11T03:45:16.518Z,98.8
2022-12-11T03:46:17.050Z,98.7
2022-12-11T03:47:16.554Z,98.6
2022-12-11T03:48:17.015Z,98.6
2022-12-11T03:49:16.504Z,98.5
2022-12-11T03:50:17.035Z,98.3
2022-12-11T03:51:16.524Z,98.3
2022-12-11T03:52:17.052Z,98.2
2022-12-11T03:53:16.530Z,98.2
2022-12-11T03:54:17.009Z,98.0
2022-12-11T03:55:16.523Z,98.1
2022-12-11T03:56:17.016Z,98.1
2022-12-11T03:57:16.496Z,98.2
2022-12-11T03:58:16.998Z,98.0
2022-12-11T03:59:16.488Z,97.9
2022-12-11T04:00:17.037Z,97.9
2022-12-11T04:01:16.510Z,97.8
2022-12-11T04:02:17.029Z,97.9
2022-12-11T04:03:16.538Z,98.0
2022-12-11T04:04:17.140Z,97.9
2022-12-11T04:05:16.663Z,97.8
2022-12-11T04:06:17.130Z,97.8
2022-12-11T04:07:16.602Z,97.8
2022-12-11T04:08:17.258Z,97.8
2022-12-11T04:09:16.785Z,97.7
2022-12-11T04:10:17.243Z,97.8
2022-12-11T04:11:16.705Z,97.9
2022-12-11T04:12:16.514Z,98.1
2022-12-11T04:13:17.057Z,98.0
2022-12-11T04:14:16.528Z,97.8
2022-12-11T04:15:17.049Z,97.7
2022-12-11T04:16:16.633Z,97.7
2022-12-11T04:17:17.146Z,97.7
2022-12-11T04:18:16.676Z,97.9
2022-12-11T04:19:17.159Z,97.9
2022-12-11T04:20:16.662Z,98.0
2022-12-11T04:21:17.130Z,97.9
2022-12-11T04:22:17.132Z,97.8
2022-12-11T04:23:16.599Z,97.8
2022-12-11T04:24:17.101Z,97.9
2022-12-11T04:25:16.582Z,97.9
2022-12-11T04:26:17.067Z,97.8
2022-12-11T04:27:16.540Z,98.0
2022-12-11T04:28:17.027Z,97.9
2022-12-11T04:29:16.506Z,98.0
2022-12-11T04:30:16.992Z,98.1
2022-12-11T04:31:16.568Z,98.2
2022-12-11T04:32:16.548Z,98.1
2022-12-11T04:33:17.071Z,98.1
2022-12-11T04:34:16.573Z,98.1
2022-12-11T04:35:17.042Z,98.1
2022-12-11T04:36:16.517Z,98.2
2022-12-11T04:37:16.975Z,98.2
2022-12-11T04:38:16.458Z,98.3
2022-12-11T04:39:16.911Z,98.2
2022-12-11T04:40:17.379Z,98.2
2022-12-11T04:41:16.871Z,98.2
2022-12-11T04:42:17.251Z,98.3
2022-12-11T04:43:16.747Z,98.3
2022-12-11T04:44:17.230Z,98.3
2022-12-11T04:45:16.706Z,98.3
2022-12-11T04:46:17.331Z,98.3
2022-12-11T04:47:16.831Z,98.2
2022-12-11T04:48:17.332Z,98.1
2022-12-11T04:49:16.791Z,98.0
2022-12-11T04:50:17.264Z,98.0
2022-12-11T04:51:16.778Z,98.0
2022-12-11T04:52:16.557Z,98.0
2022-12-11T04:53:17.040Z,98.0
2022-12-11T04:54:16.511Z,97.9
2022-12-11T04:55:17.044Z,98.0
2022-12-11T04:56:16.518Z,98.1
2022-12-11T04:57:17.036Z,98.1
2022-12-11T04:58:16.528Z,98.2
2022-12-11T04:59:16.993Z,98.2
2022-12-11T05:00:16.483Z,98.1
2022-12-11T05:01:17.071Z,98.1
2022-12-11T05:02:16.946Z,98.1
2022-12-11T05:03:17.466Z,98.1
2022-12-11T05:04:16.951Z,98.0
2022-12-11T05:05:17.436Z,97.9
2022-12-11T05:06:16.891Z,97.7
2022-12-11T05:07:17.383Z,97.5
2022-12-11T05:08:17.027Z,97.6
2022-12-11T05:09:16.537Z,97.6
2022-12-11T05:10:17.065Z,97.4
2022-12-11T05:11:16.592Z,97.5
2022-12-11T05:12:16.638Z,97.5
2022-12-11T05:13:17.133Z,97.4
2022-12-11T05:14:16.619Z,97.4
2022-12-11T05:15:17.093Z,97.3
2022-12-11T05:16:16.653Z,97.2
2022-12-11T05:17:17.175Z,97.2
2022-12-11T05:18:16.641Z,97.2
2022-12-11T05:19:17.107Z,97.2
2022-12-11T05:20:16.581Z,97.3
2022-12-11T05:21:17.043Z,97.2
2022-12-11T05:22:16.814Z,97.2
2022-12-11T05:23:17.312Z,97.2
2022-12-11T05:24:16.799Z,97.2
2022-12-11T05:25:17.335Z,97.2
2022-12-11T05:26:16.819Z,97.3
2022-12-11T05:27:17.299Z,97.3
2022-12-11T05:28:16.800Z,97.3
2022-12-11T05:29:17.305Z,97.4
2022-12-11T05:30:16.831Z,97.3
2022-12-11T05:31:17.520Z,97.2
2022-12-11T05:32:17.418Z,97.3
2022-12-11T05:33:16.878Z,97.2
2022-12-11T05:34:17.374Z,97.1
2022-12-11T05:35:16.891Z,97.0
2022-12-11T05:36:17.379Z,97.0
2022-12-11T05:37:16.870Z,97.0
2022-12-11T05:38:17.373Z,97.0
2022-12-11T05:39:16.899Z,97.1
2022-12-11T05:40:17.367Z,97.0
2022-12-11T05:41:16.837Z,97.0
2022-12-11T05:42:16.872Z,97.0
2022-12-11T05:43:17.368Z,97.0
2022-12-11T05:44:16.824Z,97.0
2022-12-11T05:45:17.313Z,97.0
2022-12-11T05:46:17.024Z,97.0
2022-12-11T05:47:16.557Z,97.1
2022-12-11T05:48:17.034Z,97.0
2022-12-11T05:49:20.266Z,96.9
2022-12-11T05:50:16.912Z,97.0
2022-12-11T05:51:17.387Z,97.0
2022-12-11T05:52:17.385Z,96.9
2022-12-11T05:53:16.887Z,96.9
2022-12-11T05:54:17.367Z,96.9
2022-12-11T05:55:16.836Z,96.9
2022-12-11T05:56:17.343Z,96.8
2022-12-11T05:57:16.837Z,96.7
2022-12-11T05:58:17.357Z,96.7
2022-12-11T05:59:16.824Z,96.6
2022-12-11T06:00:17.337Z,96.4
2022-12-11T06:01:16.890Z,96.5
2022-12-11T06:02:17.288Z,96.5
2022-12-11T06:03:16.969Z,96.5
2022-12-11T06:04:16.536Z,96.6
2022-12-11T06:05:17.006Z,96.6
2022-12-11T06:06:16.488Z,96.6
2022-12-11T06:07:16.961Z,96.6
2022-12-11T06:08:17.608Z,96.6
2022-12-11T06:09:17.092Z,96.6
2022-12-11T06:10:16.586Z,96.7
2022-12-11T06:11:24.249Z,96.8
2022-12-11T06:12:16.969Z,96.8
2022-12-11T06:13:17.466Z,96.7
2022-12-11T06:14:16.961Z,96.8
2022-12-11T06:15:17.468Z,96.8
2022-12-11T06:16:17.006Z,96.7
2022-12-11T06:17:16.519Z,96.7
2022-12-11T06:18:17.015Z,96.8
2022-12-11T06:19:16.510Z,96.8
2022-12-11T06:20:16.984Z,96.8
2022-12-11T06:21:16.506Z,96.9
2022-12-11T06:22:16.617Z,97.0
2022-12-11T06:23:17.104Z,97.0
2022-12-11T06:24:16.582Z,97.0
2022-12-11T06:25:17.050Z,97.0
2022-12-11T06:26:16.575Z,97.0
2022-12-11T06:27:17.081Z,97.1
2022-12-11T06:28:16.569Z,97.1
2022-12-11T06:29:17.032Z,97.1
2022-12-11T06:30:16.529Z,97.1
2022-12-11T06:31:17.152Z,97.1
2022-12-11T06:32:16.940Z,97.0
2022-12-11T06:33:17.450Z,97.0
2022-12-11T06:34:16.907Z,96.9
2022-12-11T06:35:17.380Z,96.9
2022-12-11T06:36:16.892Z,96.9
2022-12-11T06:37:17.360Z,96.9
2022-12-11T06:38:16.860Z,96.8
2022-12-11T06:39:17.343Z,96.8
2022-12-11T06:40:16.815Z,96.7
2022-12-11T06:41:17.319Z,96.7
2022-12-11T06:42:17.139Z,96.7
2022-12-11T06:43:16.612Z,96.7
2022-12-11T06:44:17.117Z,96.7
2022-12-11T06:45:16.616Z,96.7
2022-12-11T06:46:17.252Z,96.7
2022-12-11T06:47:16.748Z,96.7
2022-12-11T06:48:17.243Z,96.6
2022-12-11T06:49:16.708Z,96.6
2022-12-11T06:50:17.269Z,96.6
2022-12-11T06:51:16.762Z,96.5
2022-12-11T06:52:18.947Z,96.4
2022-12-11T06:53:17.463Z,96.4
2022-12-11T06:54:16.964Z,96.3
2022-12-11T06:55:17.465Z,96.2
2022-12-11T06:56:16.936Z,96.3
2022-12-11T06:57:17.427Z,96.2
2022-12-11T06:58:16.908Z,96.0
2022-12-11T06:59:17.403Z,96.1
2022-12-11T07:00:16.891Z,96.2
2022-12-11T07:01:17.461Z,96.2
2022-12-11T07:02:17.110Z,96.1
2022-12-11T07:03:16.624Z,96.1
2022-12-11T07:04:17.100Z,96.2
2022-12-11T07:05:16.604Z,96.1
2022-12-11T07:06:17.112Z,96.2
2022-12-11T07:07:16.609Z,96.1
2022-12-11T07:08:17.225Z,96.2
2022-12-11T07:09:16.700Z,96.2
2022-12-11T07:10:17.217Z,96.1
2022-12-11T07:11:16.700Z,96.0
2022-12-11T07:12:17.094Z,96.4
2022-12-11T07:13:16.573Z,96.3
2022-12-11T07:14:17.034Z,96.0
2022-12-11T07:15:16.533Z,97.8
2022-12-11T07:16:17.116Z,97.8
2022-12-11T07:17:16.614Z,97.7
2022-12-11T07:18:17.127Z,95.2
2022-12-11T07:19:16.612Z,95.2
2022-12-11T07:20:17.227Z,95.0
2022-12-11T07:21:16.716Z,94.9
2022-12-11T07:22:17.172Z,95.1
2022-12-11T07:23:16.657Z,95.1
2022-12-11T07:24:17.154Z,94.9
2022-12-11T07:25:16.637Z,94.9
2022-12-11T07:26:17.103Z,94.9
2022-12-11T07:27:16.591Z,94.8
2022-12-11T07:28:17.274Z,94.7
2022-12-11T07:29:16.849Z,94.7
2022-12-11T07:30:17.351Z,94.6
2022-12-11T07:31:17.034Z,94.6
2022-12-11T07:32:17.623Z,94.6
2022-12-11T07:33:17.209Z,94.5
2022-12-11T07:34:16.677Z,94.4
2022-12-11T07:35:17.196Z,94.2
2022-12-11T07:36:16.717Z,94.1
2022-12-11T07:37:17.195Z,94.1
2022-12-11T07:38:16.686Z,94.1
2022-12-11T07:39:17.161Z,94.1
2022-12-11T07:40:16.638Z,94.1
2022-12-11T07:41:17.141Z,94.2
2022-12-11T07:42:17.316Z,94.2
2022-12-11T07:43:16.831Z,94.2
2022-12-11T07:44:17.400Z,94.2
2022-12-11T07:45:16.894Z,94.1
2022-12-11T07:46:17.439Z,94.8
2022-12-11T07:47:16.992Z,96.9
2022-12-11T07:48:16.466Z,96.8
2022-12-11T07:49:16.980Z,96.7
2022-12-11T07:50:16.469Z,96.7
2022-12-11T07:51:16.950Z,93.4
2022-12-11T07:52:17.119Z,93.4
2022-12-11T07:53:16.590Z,93.5
2022-12-11T07:54:17.220Z,93.6
2022-12-11T07:55:16.703Z,93.5
2022-12-11T07:56:17.213Z,93.1
2022-12-11T07:57:16.745Z,93.2
2022-12-11T07:58:17.223Z,93.4
2022-12-11T07:59:16.764Z,93.6
2022-12-11T08:00:17.261Z,93.4
2022-12-11T08:01:16.898Z,93.1
2022-12-11T08:02:16.779Z,93.2
2022-12-11T08:03:17.251Z,93.3
2022-12-11T08:04:16.697Z,93.2
2022-12-11T08:05:17.165Z,93.0
2022-12-11T08:06:16.631Z,93.1
2022-12-11T08:07:17.101Z,93.1
2022-12-11T08:08:16.694Z,92.9
2022-12-11T08:09:21.477Z,92.7
2022-12-11T08:10:17.020Z,92.6
2022-12-11T08:11:16.508Z,92.5
2022-12-11T08:12:16.744Z,92.4
2022-12-11T08:13:17.216Z,92.6
2022-12-11T08:14:16.692Z,92.4
2022-12-11T08:15:17.182Z,92.3
2022-12-11T08:16:16.734Z,92.4
2022-12-11T08:17:17.264Z,92.4
2022-12-11T08:18:16.734Z,92.3
2022-12-11T08:19:17.266Z,92.2
2022-12-11T08:20:16.737Z,92.1
2022-12-11T08:21:17.246Z,91.8
2022-12-11T08:22:16.529Z,92.0
2022-12-11T08:23:17.001Z,91.8
2022-12-11T08:24:16.532Z,91.7
2022-12-11T08:25:17.071Z,91.6
2022-12-11T08:26:16.561Z,91.6
2022-12-11T08:27:17.045Z,91.6
2022-12-11T08:28:16.549Z,91.3
2022-12-11T08:29:17.040Z,91.4
2022-12-11T08:30:16.584Z,91.4
2022-12-11T08:31:17.122Z,91.2
2022-12-11T08:32:16.738Z,90.9
2022-12-11T08:33:17.239Z,90.9
2022-12-11T08:34:16.699Z,90.8
2022-12-11T08:35:17.207Z,90.8
2022-12-11T08:36:16.670Z,90.9
2022-12-11T08:37:17.151Z,90.9
2022-12-11T08:38:25.124Z,90.9
2022-12-11T08:39:16.731Z,91.0
2022-12-11T08:40:17.244Z,90.8
2022-12-11T08:41:16.733Z,90.8
2022-12-11T08:42:17.371Z,90.7
2022-12-11T08:43:16.847Z,90.8
2022-12-11T08:44:17.366Z,90.7
2022-12-11T08:45:16.825Z,90.9
2022-12-11T08:46:17.436Z,90.7
2022-12-11T08:47:16.949Z,90.7
2022-12-11T08:48:17.468Z,90.5
2022-12-11T08:49:16.949Z,90.2
2022-12-11T08:50:17.464Z,89.9
2022-12-11T08:51:16.961Z,89.8
2022-12-11T08:52:16.852Z,89.8
2022-12-11T08:53:17.318Z,89.6
2022-12-11T08:54:16.797Z,89.7
2022-12-11T08:55:17.259Z,90.0
2022-12-11T08:56:16.732Z,90.2
2022-12-11T08:57:17.190Z,90.2
2022-12-11T08:58:16.655Z,90.4
2022-12-11T08:59:17.147Z,90.4
2022-12-11T09:00:16.637Z,90.6
2022-12-11T09:01:17.191Z,90.4
2022-12-11T09:02:17.211Z,90.4
2022-12-11T09:03:16.824Z,90.7
2022-12-11T09:04:17.333Z,90.6
2022-12-11T09:05:16.844Z,90.3
2022-12-11T09:06:17.349Z,90.8
2022-12-11T09:07:16.831Z,91.0
2022-12-11T09:08:17.473Z,90.9
2022-12-11T09:09:16.998Z,90.6
2022-12-11T09:10:16.476Z,90.8
2022-12-11T09:11:16.948Z,91.0
2022-12-11T09:12:16.913Z,91.1
2022-12-11T09:13:17.399Z,90.5
2022-12-11T09:14:16.886Z,90.5
2022-12-11T09:15:17.375Z,90.7
2022-12-11T09:16:17.072Z,90.6
2022-12-11T09:17:16.599Z,90.7
2022-12-11T09:18:17.080Z,90.9
2022-12-11T09:19:16.555Z,90.7
2022-12-11T09:20:17.066Z,90.7
2022-12-11T09:21:16.562Z,90.7
2022-12-11T09:22:17.262Z,91.0
2022-12-11T09:23:16.724Z,91.1
2022-12-11T09:24:17.202Z,90.9
2022-12-11T09:25:16.676Z,90.8
2022-12-11T09:26:17.180Z,90.5
2022-12-11T09:27:16.705Z,90.1
2022-12-11T09:28:17.185Z,90.0
2022-12-11T09:29:16.694Z,90.9
2022-12-11T09:30:17.187Z,91.0
2022-12-11T09:31:16.963Z,90.8
2022-12-11T09:32:16.614Z,90.3
2022-12-11T09:33:17.104Z,90.4
2022-12-11T09:34:16.580Z,90.3
2022-12-11T09:35:17.064Z,90.3
2022-12-11T09:36:16.561Z,90.6
2022-12-11T09:37:17.052Z,91.3
2022-12-11T09:38:16.541Z,91.1
2022-12-11T09:39:17.033Z,90.4
2022-12-11T09:40:16.495Z,89.8
2022-12-11T09:41:16.987Z,89.6
2022-12-11T09:42:16.918Z,89.6
2022-12-11T09:43:17.417Z,89.4
2022-12-11T09:44:16.889Z,89.4
2022-12-11T09:45:17.377Z,89.3
2022-12-11T09:46:16.930Z,89.1
2022-12-11T09:47:17.469Z,89.2
2022-12-11T09:48:16.988Z,89.3
2022-12-11T09:49:16.449Z,89.3
2022-12-11T09:50:16.935Z,89.2
2022-12-11T09:51:17.420Z,89.2
2022-12-11T09:52:16.523Z,89.0
2022-12-11T09:53:17.038Z,88.5
2022-12-11T09:54:16.573Z,88.5
2022-12-11T09:55:17.053Z,88.4
2022-12-11T09:56:16.508Z,87.9
2022-12-11T09:57:16.987Z,87.8
2022-12-11T09:58:16.459Z,87.4
2022-12-11T09:59:16.943Z,87.0
2022-12-11T10:00:17.412Z,87.3
2022-12-11T10:01:17.004Z,86.5
2022-12-11T10:02:17.248Z,86.4
2022-12-11T10:03:16.799Z,85.7
2022-12-11T10:04:17.292Z,85.6
2022-12-11T10:05:16.800Z,87.8
2022-12-11T10:06:17.309Z,87.7
2022-12-11T10:07:16.801Z,87.3
2022-12-11T10:08:17.409Z,87.8
2022-12-11T10:09:16.928Z,87.6
2022-12-11T10:10:17.554Z,87.8
2022-12-11T10:11:17.083Z,87.4
2022-12-11T10:12:16.636Z,87.3
2022-12-11T10:13:17.088Z,88.0
2022-12-11T10:14:16.568Z,87.4
2022-12-11T10:15:17.045Z,87.3
2022-12-11T10:16:16.667Z,87.0
2022-12-11T10:17:17.184Z,87.2
2022-12-11T10:18:16.661Z,87.5
2022-12-11T10:19:17.156Z,87.7
2022-12-11T10:20:16.648Z,87.6
2022-12-11T10:21:17.132Z,88.1
2022-12-11T10:22:16.940Z,88.0
2022-12-11T10:23:17.424Z,88.0
2022-12-11T10:24:42.117Z,87.8
2022-12-11T10:25:17.375Z,87.2
2022-12-11T10:26:16.870Z,86.7
2022-12-11T10:27:17.358Z,87.3
2022-12-11T10:28:16.833Z,87.5
2022-12-11T10:29:17.282Z,87.5
2022-12-11T10:30:17.058Z,87.3
2022-12-11T10:31:16.776Z,87.3
2022-12-11T10:32:17.334Z,87.1
2022-12-11T10:33:16.791Z,87.2
2022-12-11T10:34:17.278Z,87.8
2022-12-11T10:35:16.755Z,88.2
2022-12-11T10:36:17.255Z,88.6
2022-12-11T10:37:16.746Z,88.2
2022-12-11T10:38:17.205Z,88.1
2022-12-11T10:39:16.687Z,87.9
2022-12-11T10:40:17.160Z,93.2
2022-12-11T10:41:16.626Z,93.3
2022-12-11T10:42:16.946Z,93.4
2022-12-11T10:43:17.455Z,93.3
2022-12-11T10:44:16.969Z,93.4
2022-12-11T10:45:17.452Z,93.5
2022-12-11T10:46:17.118Z,93.8
2022-12-11T10:47:16.638Z,93.7
2022-12-11T10:48:17.152Z,93.4
2022-12-11T10:49:16.685Z,93.4
2022-12-11T10:50:17.183Z,93.5
2022-12-11T10:51:16.651Z,86.9
2022-12-11T10:52:17.298Z,86.8
2022-12-11T10:53:16.772Z,89.0
2022-12-11T10:54:17.269Z,93.3
2022-12-11T10:55:16.744Z,93.8
2022-12-11T10:56:17.230Z,93.7
2022-12-11T10:57:16.697Z,93.2
2022-12-11T10:58:17.180Z,93.5
2022-12-11T10:59:24.152Z,93.7
2022-12-11T11:00:16.705Z,93.5
2022-12-11T11:01:17.301Z,93.5
2022-12-11T11:02:17.239Z,93.5
2022-12-11T11:03:16.745Z,93.5
2022-12-11T11:04:17.243Z,93.5
2022-12-11T11:05:16.730Z,93.7
2022-12-11T11:06:17.255Z,87.5
2022-12-11T11:07:16.741Z,88.1
2022-12-11T11:08:17.347Z,87.6
2022-12-11T11:09:16.891Z,88.0
2022-12-11T11:10:17.388Z,88.2
2022-12-11T11:11:16.869Z,88.2
2022-12-11T11:12:17.444Z,88.7
2022-12-11T11:13:16.911Z,88.4
2022-12-11T11:14:17.430Z,88.5
2022-12-11T11:15:16.951Z,88.4
2022-12-11T11:16:17.512Z,88.5
2022-12-11T11:17:17.006Z,88.7
2022-12-11T11:18:16.455Z,88.6
2022-12-11T11:19:17.047Z,88.8
2022-12-11T11:20:16.505Z,88.7
2022-12-11T11:21:16.971Z,88.1
2022-12-11T11:22:17.060Z,87.8
2022-12-11T11:23:16.578Z,88.0
2022-12-11T11:24:17.041Z,87.8
2022-12-11T11:25:16.528Z,88.4
2022-12-11T11:26:17.008Z,88.1
2022-12-11T11:27:16.501Z,88.0
2022-12-11T11:28:17.017Z,88.6
2022-12-11T11:29:16.502Z,88.8
2022-12-11T11:30:16.974Z,89.0
2022-12-11T11:31:16.591Z,88.9
2022-12-11T11:32:17.219Z,88.6
2022-12-11T11:33:16.686Z,88.6
2022-12-11T11:34:17.161Z,88.3
2022-12-11T11:35:16.624Z,88.4
2022-12-11T11:36:17.133Z,88.4
2022-12-11T11:37:16.652Z,88.6
2022-12-11T11:38:17.140Z,88.1
2022-12-11T11:39:16.627Z,88.0
2022-12-11T11:40:17.113Z,88.2
2022-12-11T11:41:16.595Z,88.4
2022-12-11T11:42:17.398Z,88.2
2022-12-11T11:43:16.910Z,88.2
2022-12-11T11:44:17.400Z,87.9
2022-12-11T11:45:16.913Z,87.7
2022-12-11T11:46:17.466Z,87.5
2022-12-11T11:47:16.961Z,87.8
2022-12-11T11:48:17.452Z,88.6
2022-12-11T11:49:16.925Z,88.5
2022-12-11T11:50:17.416Z,88.3
2022-12-11T11:51:16.895Z,88.1
2022-12-11T11:52:17.224Z,88.1
2022-12-11T11:53:16.754Z,88.2
2022-12-11T11:54:17.240Z,87.6
2022-12-11T11:55:22.906Z,87.9
2022-12-11T11:56:16.566Z,87.8
2022-12-11T11:57:17.034Z,87.7
2022-12-11T11:58:16.561Z,87.7
2022-12-11T11:59:17.031Z,88.0
2022-12-11T12:00:16.517Z,88.2
2022-12-11T12:01:17.000Z,88.0
2022-12-11T12:02:16.881Z,87.9
2022-12-11T12:03:17.388Z,87.4
2022-12-11T12:04:16.858Z,87.2
2022-12-11T12:05:17.364Z,88.4
2022-12-11T12:06:16.898Z,88.3
2022-12-11T12:07:17.380Z,88.0
2022-12-11T12:08:17.035Z,87.7
2022-12-11T12:09:16.794Z,87.8
2022-12-11T12:10:17.320Z,87.6
2022-12-11T12:11:16.768Z,87.2
2022-12-11T12:12:27.598Z,87.0
2022-12-11T12:14:51.448Z,87.0
2022-12-11T12:15:17.179Z,86.8
2022-12-11T12:16:51.984Z,86.8
2022-12-11T12:17:17.377Z,86.6
2022-12-11T12:18:16.892Z,86.5
2022-12-11T12:19:17.369Z,86.7
2022-12-11T12:20:16.889Z,86.7
2022-12-11T12:21:17.367Z,86.5
2022-12-11T12:22:17.186Z,86.5
2022-12-11T12:23:16.689Z,86.5
2022-12-11T12:24:17.161Z,86.6
2022-12-11T12:25:16.627Z,86.6
2022-12-11T12:26:17.130Z,86.6
2022-12-11T12:27:51.408Z,86.3
2022-12-11T12:28:17.146Z,86.9
2022-12-11T12:29:16.625Z,86.9
2022-12-11T12:30:23.550Z,86.7
2022-12-11T12:31:17.485Z,86.2
2022-12-11T12:32:16.635Z,86.2
2022-12-11T12:33:17.190Z,86.6
2022-12-11T12:34:16.698Z,86.9
2022-12-11T12:35:17.162Z,86.7
2022-12-11T12:36:16.619Z,86.7
2022-12-11T12:37:17.100Z,86.3
2022-12-11T12:38:16.545Z,86.4
2022-12-11T12:39:17.031Z,86.4
2022-12-11T12:40:16.518Z,86.7
2022-12-11T12:41:17.044Z,86.4
2022-12-11T12:42:16.774Z,86.0
2022-12-11T12:43:17.261Z,85.7
2022-12-11T12:44:16.952Z,85.6
2022-12-11T12:45:17.442Z,86.0
2022-12-11T12:46:17.030Z,85.4
2022-12-11T12:47:16.527Z,85.5
2022-12-11T12:48:16.996Z,85.4
2022-12-11T12:49:16.456Z,85.0
2022-12-11T12:50:16.954Z,84.8
2022-12-11T12:51:17.433Z,84.3
2022-12-11T12:52:16.475Z,84.5
2022-12-11T12:53:16.939Z,84.2
2022-12-11T12:54:17.406Z,84.5
2022-12-11T12:55:16.910Z,84.5
2022-12-11T12:56:17.439Z,84.4
2022-12-11T12:57:16.921Z,84.8
2022-12-11T12:58:17.470Z,84.6
2022-12-11T12:59:16.975Z,84.4
2022-12-11T13:00:16.488Z,84.7
2022-12-11T13:01:17.135Z,84.6
2022-12-11T13:02:16.936Z,84.7
2022-12-11T13:03:17.452Z,84.2
2022-12-11T13:04:54.297Z,84.4
2022-12-11T13:05:17.387Z,84.4
2022-12-11T13:06:16.855Z,84.0
2022-12-11T13:07:17.338Z,83.9
2022-12-11T13:08:16.944Z,83.8
2022-12-11T13:09:17.444Z,83.2
2022-12-11T13:10:16.946Z,83.8
2022-12-11T13:11:17.422Z,83.8
2022-12-11T13:12:17.056Z,84.2
2022-12-11T13:13:16.545Z,84.5
2022-12-11T13:14:17.005Z,83.8
2022-12-11T13:15:16.465Z,83.9
2022-12-11T13:16:17.031Z,91.5
2022-12-11T13:17:16.541Z,91.4
2022-12-11T13:18:17.036Z,91.1
2022-12-11T13:19:16.537Z,91.0